Time;durP1;ratioP1;P1;durP2;ratioP2;P2;SDS_P1;SDS_P2;PMS_P1;PMS_P2;Temp;Humidity;BMP_temperature;BMP_pressure;BME280_temperature;BME280_humidity;BME280_pressure;Samples;Min_cycle;Max_cycle;Signal;HPM_P1;HPM_P2
2022/05/19 00:01:41;;;;;;;9.90;3.30;;;;;;;8.85;44.17;99929.09;105330;1287;22549;-82
2022/05/19 00:04:19;;;;;;;9.50;2.90;;;;;;;8.80;44.39;99931.84;105092;1286;25574;-79
2022/05/19 00:06:52;;;;;;;9.30;2.90;;;;;;;8.75;44.45;99933.00;104936;1283;247780;-79
2022/05/19 00:09:39;;;;;;;9.20;3.20;;;;;;;8.69;44.57;99931.49;105427;1284;22849;-78
2022/05/19 00:12:28;;;;;;;10.80;3.30;;;;;;;8.64;44.71;99931.42;105170;1283;25338;-77
2022/05/19 00:15:15;;;;;;;12.30;3.10;;;;;;;8.60;44.60;99930.02;105491;1283;25311;-77
2022/05/19 00:18:16;;;;;;;;;;;;;;;;;;;;;
2022/05/19 00:21:09;;;;;;;10.40;2.80;;;;;;;8.63;44.87;99923.11;105978;1274;23551;-78
2022/05/19 00:23:36;;;;;;;9.00;2.90;;;;;;;8.69;44.94;99922.65;105856;1274;24304;-79
2022/05/19 00:26:03;;;;;;;8.90;3.10;;;;;;;8.73;45.07;99921.60;105926;1274;22864;-80
2022/05/19 00:28:33;;;;;;;8.80;2.50;;;;;;;8.73;45.19;99920.84;105794;1274;22710;-83
2022/05/19 00:31:34;;;;;;;;;;;;;;;;;;;;;
2022/05/19 00:34:10;;;;;;;7.40;2.10;;;;;;;8.76;45.41;99919.41;105771;1277;22692;-85
2022/05/19 00:37:09;;;;;;;;;;;;;;;;;;;;;
2022/05/19 00:39:36;;;;;;;6.90;1.60;;;;;;;8.88;45.28;99917.08;105936;1277;25468;-76
2022/05/19 00:45:49;;;;;;;5.00;1.60;;;;;;;8.98;45.16;99912.12;105927;1277;25492;-84
2022/05/19 00:48:26;;;;;;;6.60;1.50;;;;;;;9.00;45.16;99910.23;105915;1277;24440;-79
2022/05/19 00:51:19;;;;;;;7.60;1.60;;;;;;;8.99;45.32;99908.52;105900;1277;24030;-78
2022/05/19 00:54:09;;;;;;;;;;;;;;;;;;;;;
2022/05/19 00:57:12;;;;;;;4.40;1.30;;;;;;;8.95;45.33;99908.52;105697;1277;22708;-79
2022/05/19 01:00:37;;;;;;;;;;;;;;;;;;;;;
2022/05/19 01:03:10;;;;;;;4.40;1.20;;;;;;;9.03;45.16;99903.46;105895;1276;22534;-77
2022/05/19 01:05:49;;;;;;;5.70;1.10;;;;;;;9.09;45.23;99905.14;105660;1277;22722;-77
2022/05/19 01:09:18;;;;;;;6.10;1.30;;;;;;;9.10;45.22;99905.42;105668;1277;25300;-77
2022/05/19 01:11:52;;;;;;;6.20;1.50;;;;;;;9.08;45.32;99906.59;105656;1277;25347;-77
2022/05/19 01:14:20;;;;;;;6.70;1.50;;;;;;;9.03;45.29;99903.30;105680;1277;22537;-77
2022/05/19 01:16:59;;;;;;;6.00;1.40;;;;;;;8.98;45.39;99905.86;105637;1277;22684;-78
2022/05/19 01:20:03;;;;;;;4.80;1.40;;;;;;;8.94;45.46;99906.27;105641;1277;24339;-77
2022/05/19 01:23:06;;;;;;;7.60;1.40;;;;;;;8.91;45.45;99905.88;105606;1277;25614;-77
2022/05/19 01:26:05;;;;;;;4.30;1.20;;;;;;;8.93;45.46;99902.71;105779;1277;22537;-77
2022/05/19 01:28:55;;;;;;;4.00;1.10;;;;;;;8.97;45.47;99895.29;105771;1276;22699;-77
2022/05/19 01:31:51;;;;;;;6.20;1.30;;;;;;;9.07;45.57;99895.65;105721;1277;25244;-77
2022/05/19 01:34:22;;;;;;;3.90;1.00;;;;;;;9.17;45.40;99889.94;105686;1277;22622;-76
2022/05/19 01:37:13;;;;;;;6.00;1.00;;;;;;;9.26;45.30;99890.71;105730;1277;25395;-76
2022/05/19 01:40:00;;;;;;;3.10;0.90;;;;;;;9.34;45.18;99890.46;105765;1277;22827;-77
2022/05/19 01:43:51;;;;;;;3.50;0.90;;;;;;;9.43;45.22;99894.05;105683;1277;22656;-76
2022/05/19 01:46:39;;;;;;;5.20;0.90;;;;;;;9.61;45.13;99888.30;105080;1282;22668;-77
2022/05/19 01:49:34;;;;;;;4.90;1.10;;;;;;;9.67;45.00;99889.16;105006;1282;22541;-78
2022/05/19 01:52:57;;;;;;;3.50;0.90;;;;;;;9.72;44.93;99888.71;105095;1282;25381;-77
2022/05/19 01:56:06;;;;;;;4.90;1.00;;;;;;;9.76;44.95;99888.35;104988;1282;23711;-80
2022/05/19 01:59:14;;;;;;;3.30;1.00;;;;;;;9.74;45.11;99889.31;104952;1282;26076;-79
2022/05/19 02:01:50;;;;;;;3.60;0.80;;;;;;;9.64;45.21;99884.03;105355;1281;22543;-80
2022/05/19 02:04:39;;;;;;;4.00;0.80;;;;;;;9.53;45.39;99881.78;105354;1281;22546;-83
2022/05/19 02:07:13;;;;;;;12.30;1.20;;;;;;;9.45;45.43;99887.92;105509;1281;22560;-80
2022/05/19 02:10:14;;;;;;;;;;;;;;;;;;;;;
2022/05/19 02:12:58;;;;;;;5.70;1.10;;;;;;;9.26;45.67;99883.80;105613;1281;22599;-84
2022/05/19 02:15:34;;;;;;;4.40;1.20;;;;;;;9.16;45.77;99885.00;105607;1281;22567;-80
2022/05/19 02:18:16;;;;;;;5.50;1.40;;;;;;;9.07;45.89;99886.75;105571;1281;25332;-79
2022/05/19 02:21:06;;;;;;;;;;;;;;;;;;;;;
2022/05/19 02:23:56;;;;;;;5.20;1.10;;;;;;;8.90;45.89;99881.59;106051;1274;22532;-81
2022/05/19 02:26:37;;;;;;;5.80;1.30;;;;;;;8.85;46.16;99879.53;106315;1273;24214;-81
2022/05/19 02:29:29;;;;;;;;;;;;;;;;;;;;;
2022/05/19 02:32:22;;;;;;;7.40;1.50;;;;;;;8.73;46.32;99875.59;106221;1274;24251;-85
2022/05/19 02:35:00;;;;;;;5.90;1.60;;;;;;;8.71;46.27;99873.54;105926;1274;22551;-84
2022/05/19 02:37:27;;;;;;;4.90;1.10;;;;;;;8.69;46.44;99873.10;105905;1274;22843;-82
2022/05/19 02:40:03;;;;;;;5.80;1.30;;;;;;;8.68;46.39;99872.99;105885;1273;22535;-82
2022/05/19 02:42:43;;;;;;;5.30;1.10;;;;;;;8.65;46.56;99869.92;105881;1274;23903;-83
2022/05/19 02:45:23;;;;;;;7.30;1.50;;;;;;;8.62;46.55;99865.27;105875;1274;22524;-85
2022/05/19 02:47:53;;;;;;;7.30;1.10;;;;;;;8.59;46.58;99864.37;106011;1274;25291;-78
2022/05/19 02:50:47;;;;;;;5.30;1.40;;;;;;;8.56;46.67;99868.44;105961;1274;24240;-84
2022/05/19 02:53:23;;;;;;;5.30;1.30;;;;;;;8.52;46.74;99866.70;105859;1274;23034;-79
2022/05/19 02:56:30;;;;;;;;;;;;;;;;;;;;;
2022/05/19 02:59:30;;;;;;;5.10;1.10;;;;;;;8.46;47.05;99863.65;106300;1274;25308;-78
2022/05/19 03:02:08;;;;;;;8.00;1.40;;;;;;;8.44;46.94;99863.74;106265;1274;25236;-78
2022/05/19 03:04:45;;;;;;;5.90;1.20;;;;;;;8.43;47.04;99862.04;105982;1274;22537;-80
2022/05/19 03:07:52;;;;;;;7.70;1.30;;;;;;;8.40;47.19;99863.25;106301;1273;25352;-79
2022/05/19 03:10:26;;;;;;;7.80;1.60;;;;;;;8.36;47.17;99861.64;106281;1273;22664;-81
2022/05/19 03:13:08;;;;;;;6.80;1.20;;;;;;;8.36;47.06;99862.16;106028;1274;22698;-83
2022/05/19 03:16:02;;;;;;;5.90;1.20;;;;;;;8.46;47.05;99856.36;106025;1273;22553;-78
2022/05/19 03:19:10;;;;;;;5.70;1.40;;;;;;;8.66;46.93;99857.30;106003;1274;22563;-80
2022/05/19 03:21:52;;;;;;;6.60;1.20;;;;;;;8.91;46.90;99859.19;106097;1274;24275;-80
2022/05/19 03:24:38;;;;;;;7.00;1.50;;;;;;;9.10;46.73;99854.63;105858;1274;24682;-86
2022/05/19 03:27:19;;;;;;;;;;;;;;;;;;;;;
2022/05/19 03:30:17;;;;;;;;;;;;;;;;;;;;;
2022/05/19 03:33:07;;;;;;;7.80;1.30;;;;;;;9.64;46.50;99845.25;106001;1273;25359;-78
2022/05/19 03:35:57;;;;;;;6.30;1.50;;;;;;;9.80;46.42;99844.73;106062;1273;24419;-78
2022/05/19 03:38:48;;;;;;;5.90;1.20;;;;;;;10.01;46.45;99839.08;106010;1274;22694;-86
2022/05/19 03:42:10;;;;;;;6.60;1.10;;;;;;;10.24;46.42;99841.31;105980;1274;22555;-79
2022/05/19 03:45:02;;;;;;;9.70;1.30;;;;;;;10.46;46.24;99841.45;105972;1274;26481;-82
2022/05/19 03:47:54;;;;;;;15.50;1.50;;;;;;;10.66;46.19;99836.35;105992;1274;24225;-84
2022/05/19 03:50:30;;;;;;;8.30;1.00;;;;;;;10.85;46.03;99834.67;105987;1274;22724;-82
2022/05/19 03:54:05;;;;;;;9.10;1.90;;;;;;;11.01;46.19;99835.13;106005;1274;22528;-86
2022/05/19 03:56:21;;;;;;;7.80;1.30;;;;;;;11.23;46.12;99833.04;106205;1273;22580;-79
2022/05/19 03:58:49;;;;;;;6.70;1.50;;;;;;;11.43;45.92;99831.61;105932;1274;23938;-80
2022/05/19 04:01:40;;;;;;;9.60;1.80;;;;;;;11.63;45.82;99830.30;106043;1274;23701;-79
2022/05/19 04:04:14;;;;;;;9.10;1.70;;;;;;;11.86;45.81;99827.27;106235;1273;22548;-84
2022/05/19 04:06:45;;;;;;;6.90;1.60;;;;;;;11.96;45.83;99828.02;106038;1273;22553;-77
2022/05/19 04:09:26;;;;;;;9.60;1.70;;;;;;;12.08;45.60;99824.93;105983;1274;25240;-80
2022/05/19 04:12:43;;;;;;;;;;;;;;;;;;;;;
2022/05/19 04:15:14;;;;;;;6.70;1.30;;;;;;;12.57;45.37;99825.55;106095;1273;22541;-80
2022/05/19 04:18:02;;;;;;;4.80;1.10;;;;;;;12.76;45.42;99826.23;106225;1274;24313;-77
2022/05/19 04:20:47;;;;;;;6.50;1.30;;;;;;;12.92;45.35;99824.73;105958;1274;25342;-85
2022/05/19 04:23:25;;;;;;;6.90;1.30;;;;;;;13.06;45.37;99826.45;105952;1274;25568;-85
2022/05/19 04:26:03;;;;;;;12.10;1.60;;;;;;;13.24;45.33;99827.01;105904;1273;22541;-83
2022/05/19 04:28:32;;;;;;;10.10;1.50;;;;;;;13.38;45.30;99826.02;105962;1274;22551;-85
2022/05/19 04:31:24;;;;;;;7.00;1.30;;;;;;;13.49;45.28;99832.34;106067;1274;25581;-86
2022/05/19 04:33:54;;;;;;;16.10;1.90;;;;;;;13.63;45.32;99835.81;106317;1273;24186;-83
2022/05/19 04:36:30;;;;;;;15.50;1.80;;;;;;;13.78;45.39;99835.65;105912;1274;22693;-84
2022/05/19 04:39:03;;;;;;;8.80;1.50;;;;;;;13.96;45.23;99837.69;105920;1273;25366;-78
2022/05/19 04:41:33;;;;;;;10.20;1.30;;;;;;;14.13;45.25;99836.48;105929;1273;22571;-86
2022/05/19 04:44:03;;;;;;;9.10;1.80;;;;;;;14.26;45.12;99838.64;105957;1274;22588;-84
2022/05/19 04:46:30;;;;;;;5.40;1.10;;;;;;;14.40;45.24;99836.01;106257;1273;25412;-78
2022/05/19 04:49:08;;;;;;;;;;;;;;;;;;;;;
2022/05/19 04:51:41;;;;;;;21.30;2.20;;;;;;;14.70;45.25;99833.27;105990;1273;22550;-80
2022/05/19 04:54:08;;;;;;;14.50;1.80;;;;;;;14.87;44.94;99833.92;106003;1273;22699;-86
2022/05/19 04:56:35;;;;;;;7.50;1.30;;;;;;;15.03;44.95;99840.21;105950;1274;22731;-80
2022/05/19 04:59:14;;;;;;;6.70;1.20;;;;;;;15.20;44.91;99839.21;105974;1274;25216;-81
2022/05/19 05:01:43;;;;;;;8.10;1.50;;;;;;;15.41;44.76;99838.27;105988;1273;22534;-85
2022/05/19 05:04:10;;;;;;;6.50;1.00;;;;;;;15.59;44.85;99841.09;105926;1273;24306;-85
2022/05/19 05:06:38;;;;;;;10.00;1.40;;;;;;;15.76;44.75;99840.99;106036;1273;25190;-76
2022/05/19 05:09:08;;;;;;;8.80;1.30;;;;;;;15.93;44.69;99838.94;105890;1273;25714;-78
2022/05/19 05:11:35;;;;;;;6.30;1.20;;;;;;;16.08;44.54;99835.50;105855;1274;22760;-85
2022/05/19 05:14:08;;;;;;;9.80;1.50;;;;;;;16.23;44.70;99836.29;105924;1274;22562;-80
2022/05/19 05:16:56;;;;;;;6.30;1.20;;;;;;;16.37;44.61;99839.77;106066;1274;26367;-80
2022/05/19 05:19:25;;;;;;;7.20;1.20;;;;;;;16.54;44.47;99839.06;105938;1274;25311;-79
2022/05/19 05:21:57;;;;;;;9.60;1.60;;;;;;;16.70;44.62;99840.39;106053;1274;22649;-80
2022/05/19 05:24:24;;;;;;;12.80;1.60;;;;;;;16.88;44.60;99839.27;106010;1273;25174;-84
2022/05/19 05:26:54;;;;;;;9.20;1.50;;;;;;;17.04;44.49;99838.52;105942;1273;22583;-84
2022/05/19 05:29:24;;;;;;;8.70;1.60;;;;;;;17.18;44.34;99835.73;105841;1274;22815;-84
2022/05/19 05:31:51;;;;;;;17.40;1.70;;;;;;;17.29;44.45;99837.98;106062;1274;25532;-79
2022/05/19 05:34:19;;;;;;;10.90;1.40;;;;;;;17.39;44.40;99836.75;106200;1273;22832;-83
2022/05/19 05:36:49;;;;;;;8.00;1.10;;;;;;;17.53;44.25;99840.14;105974;1274;23939;-78
2022/05/19 05:39:16;;;;;;;20.80;1.70;;;;;;;17.67;44.03;99844.75;105946;1274;22772;-81
2022/05/19 05:41:46;;;;;;;12.60;1.40;;;;;;;17.81;44.03;99841.86;105920;1274;22616;-82
2022/05/19 05:44:14;;;;;;;5.30;0.90;;;;;;;18.01;43.91;99842.42;105939;1273;24289;-84
2022/05/19 05:46:44;;;;;;;5.30;1.20;;;;;;;18.14;43.71;99837.10;105910;1274;25169;-79
2022/05/19 05:49:14;;;;;;;6.90;1.10;;;;;;;18.29;43.72;99833.69;106021;1274;22559;-84
2022/05/19 05:51:41;;;;;;;8.40;1.20;;;;;;;18.46;43.70;99833.21;105853;1273;24306;-77
2022/05/19 05:54:10;;;;;;;5.20;1.00;;;;;;;18.59;43.45;99832.89;106101;1274;22560;-81
2022/05/19 05:56:37;;;;;;;6.90;1.20;;;;;;;18.69;43.35;99838.67;106392;1273;25324;-78
2022/05/19 05:59:07;;;;;;;4.40;1.20;;;;;;;18.76;43.20;99840.75;105979;1274;24258;-82
2022/05/19 06:01:44;;;;;;;6.30;1.00;;;;;;;18.82;43.08;99834.38;106086;1274;22997;-84
2022/05/19 06:04:24;;;;;;;4.90;1.10;;;;;;;18.92;42.98;99835.46;105836;1273;24242;-81
2022/05/19 06:06:51;;;;;;;6.50;1.10;;;;;;;19.04;42.77;99837.20;105990;1274;24240;-82
2022/05/19 06:09:28;;;;;;;4.30;0.90;;;;;;;19.18;42.90;99843.58;106199;1273;25392;-78
2022/05/19 06:11:54;;;;;;;4.80;1.20;;;;;;;19.26;42.67;99843.59;106018;1273;25237;-77
2022/05/19 06:14:25;;;;;;;7.40;1.30;;;;;;;19.31;42.70;99845.98;105999;1274;22560;-77
2022/05/19 06:16:54;;;;;;;7.30;1.10;;;;;;;19.40;42.46;99848.15;105942;1274;24248;-81
2022/05/19 06:19:22;;;;;;;4.70;1.00;;;;;;;19.48;42.40;99844.48;106027;1274;22533;-84
2022/05/19 06:21:49;;;;;;;11.60;1.50;;;;;;;19.57;42.40;99845.44;105937;1274;22537;-82
2022/05/19 06:24:16;;;;;;;10.40;1.00;;;;;;;19.73;42.31;99848.25;105872;1273;22626;-77
2022/05/19 06:26:43;;;;;;;7.90;1.40;;;;;;;19.88;42.13;99847.11;106112;1274;25295;-77
2022/05/19 06:29:10;;;;;;;9.00;1.20;;;;;;;19.97;42.01;99848.27;105912;1274;25302;-81
2022/05/19 06:31:38;;;;;;;9.00;1.40;;;;;;;20.11;42.08;99851.52;106158;1273;22719;-84
2022/05/19 06:34:15;;;;;;;12.50;1.20;;;;;;;20.26;42.08;99853.14;106165;1273;25360;-78
2022/05/19 06:36:42;;;;;;;14.30;1.40;;;;;;;20.41;42.19;99853.80;106129;1274;22556;-82
2022/05/19 06:39:19;;;;;;;5.60;1.40;;;;;;;20.60;42.22;99852.42;105862;1273;22602;-81
2022/05/19 06:42:15;;;;;;;;;;;;;;;;;;;;;
2022/05/19 06:44:43;;;;;;;5.20;1.00;;;;;;;20.97;41.67;99848.98;105997;1274;22555;-79
2022/05/19 06:47:14;;;;;;;4.60;1.00;;;;;;;21.09;41.67;99849.06;105979;1274;22567;-78
2022/05/19 06:49:46;;;;;;;7.70;1.10;;;;;;;21.17;41.57;99848.59;105915;1274;23509;-85
2022/05/19 06:52:29;;;;;;;4.50;1.30;;;;;;;21.26;41.35;99846.58;106067;1274;25239;-80
2022/05/19 06:54:59;;;;;;;3.00;1.00;;;;;;;21.31;41.13;99847.30;106020;1274;25908;-78
2022/05/19 06:57:28;;;;;;;9.70;1.70;;;;;;;21.39;41.17;99848.73;105988;1274;25258;-77
2022/05/19 07:00:00;;;;;;;10.90;1.40;;;;;;;21.44;41.18;99853.06;106005;1274;22590;-80
2022/05/19 07:02:30;;;;;;;7.30;1.30;;;;;;;21.53;40.94;99848.19;105885;1277;24249;-79
2022/05/19 07:04:57;;;;;;;10.20;1.40;;;;;;;21.68;40.86;99848.67;105990;1274;22543;-81
2022/05/19 07:07:28;;;;;;;12.80;1.80;;;;;;;21.79;40.62;99848.41;105992;1273;25350;-79
2022/05/19 07:09:57;;;;;;;13.10;1.90;;;;;;;21.83;40.70;99849.90;105880;1277;22537;-83
2022/05/19 07:12:25;;;;;;;4.20;1.00;;;;;;;21.96;40.81;99846.83;105944;1274;23046;-78
2022/05/19 07:14:56;;;;;;;5.40;1.00;;;;;;;22.02;40.20;99850.86;105982;1274;24254;-85
2022/05/19 07:17:26;;;;;;;5.00;1.40;;;;;;;21.98;40.23;99851.28;106202;1274;22570;-85
2022/05/19 07:22:42;;;;;;;6.90;1.30;;;;;;;22.14;40.53;99840.64;106002;1274;22580;-76
2022/05/19 07:25:11;;;;;;;9.60;1.60;;;;;;;22.39;40.32;99842.48;105903;1274;22552;-83
2022/05/19 07:27:44;;;;;;;11.70;1.50;;;;;;;22.55;40.15;99837.34;105788;1274;24209;-82
2022/05/19 07:30:13;;;;;;;6.40;1.10;;;;;;;22.54;39.80;99835.73;105978;1274;25241;-78
2022/05/19 07:32:41;;;;;;;6.10;1.50;;;;;;;22.61;39.97;99836.12;105903;1277;24206;-84
2022/05/19 07:35:11;;;;;;;5.40;1.10;;;;;;;22.72;39.46;99838.38;106205;1274;23231;-80
2022/05/19 07:37:45;;;;;;;7.40;1.10;;;;;;;22.71;39.31;99837.55;106059;1274;25307;-78
2022/05/19 07:40:13;;;;;;;8.60;1.30;;;;;;;22.64;39.16;99837.75;106074;1274;26889;-85
2022/05/19 07:42:41;;;;;;;6.40;1.20;;;;;;;22.62;39.27;99837.95;105960;1274;22579;-85
2022/05/19 07:45:16;;;;;;;5.30;1.40;;;;;;;22.71;39.38;99841.13;105963;1274;23909;-79
2022/05/19 07:47:44;;;;;;;5.40;1.10;;;;;;;22.92;39.37;99840.06;106010;1274;25432;-80
2022/05/19 07:50:15;;;;;;;6.10;1.00;;;;;;;23.07;38.97;99839.48;106325;1274;25230;-79
2022/05/19 07:52:47;;;;;;;5.50;1.10;;;;;;;23.02;38.77;99839.66;106274;1274;23902;-81
2022/05/19 07:55:56;;;;;;;5.60;1.10;;;;;;;22.98;38.49;99843.14;106238;1274;22538;-85
2022/05/19 07:59:10;;;;;;;6.60;1.50;;;;;;;22.95;38.76;99841.07;106216;1274;22535;-83
2022/05/19 08:01:11;;;;;;;8.30;1.50;;;;;;;23.15;38.60;99838.95;106085;1274;23273;-84
2022/05/19 08:03:41;;;;;;;8.50;1.20;;;;;;;23.31;38.92;99836.45;106023;1274;25325;-78
2022/05/19 08:06:10;;;;;;;4.80;1.10;;;;;;;23.48;38.62;99833.91;106033;1274;24195;-83
2022/05/19 08:08:48;;;;;;;9.70;1.30;;;;;;;23.50;38.58;99832.80;106166;1274;25288;-79
2022/05/19 08:11:36;;;;;;;6.10;1.20;;;;;;;23.57;38.16;99835.50;106011;1274;22768;-83
2022/05/19 08:16:51;;;;;;;6.40;1.10;;;;;;;23.66;38.12;99837.16;105982;1274;23950;-79
2022/05/19 08:19:18;;;;;;;5.60;1.20;;;;;;;23.73;38.13;99835.83;105951;1274;25292;-79
2022/05/19 08:21:44;;;;;;;7.20;1.00;;;;;;;23.77;37.88;99839.56;106064;1274;24454;-86
2022/05/19 08:24:32;;;;;;;6.50;1.10;;;;;;;23.81;37.54;99837.46;106214;1274;24412;-90
2022/05/19 08:27:00;;;;;;;4.00;1.10;;;;;;;23.72;37.18;99835.61;106222;1274;26536;-81
2022/05/19 08:29:27;;;;;;;7.50;1.10;;;;;;;23.67;37.41;99838.57;106023;1274;25203;-82
2022/05/19 08:31:57;;;;;;;5.80;1.10;;;;;;;23.68;37.18;99836.59;106124;1275;22543;-83
2022/05/19 08:34:24;;;;;;;3.50;0.90;;;;;;;23.71;37.05;99836.20;106084;1274;24297;-83
2022/05/19 08:36:51;;;;;;;6.90;0.90;;;;;;;23.69;37.01;99833.41;106031;1274;25236;-83
2022/05/19 08:39:28;;;;;;;7.10;1.30;;;;;;;23.66;36.95;99833.73;106005;1274;25225;-86
2022/05/19 08:42:00;;;;;;;7.70;1.20;;;;;;;23.70;36.99;99829.75;106001;1274;24252;-86
2022/05/19 08:44:55;;;;;;;4.70;1.20;;;;;;;23.87;37.32;99828.42;106227;1274;23064;-77
2022/05/19 08:47:30;;;;;;;6.60;1.20;;;;;;;24.14;37.02;99822.39;106248;1274;25392;-80
2022/05/19 08:50:04;;;;;;;6.20;1.20;;;;;;;24.26;36.70;99824.58;106064;1274;22832;-83
2022/05/19 08:52:38;;;;;;;6.30;1.20;;;;;;;24.33;36.84;99821.10;106075;1274;22530;-85
2022/05/19 08:55:06;;;;;;;4.00;1.10;;;;;;;24.45;36.48;99816.48;105980;1274;22537;-79
2022/05/19 08:57:47;;;;;;;4.50;1.10;;;;;;;24.53;36.44;99812.48;106240;1273;22561;-85
2022/05/19 09:00:44;;;;;;;6.00;1.00;;;;;;;24.60;36.41;99810.45;106044;1274;25216;-80
2022/05/19 09:03:24;;;;;;;8.30;1.20;;;;;;;24.67;36.44;99810.46;106233;1274;24197;-80
2022/05/19 09:06:19;;;;;;;3.90;0.90;;;;;;;24.80;36.11;99810.15;105919;1274;22544;-84
2022/05/19 09:09:01;;;;;;;6.80;1.20;;;;;;;24.90;36.11;99806.78;105995;1275;24420;-79
2022/05/19 09:11:57;;;;;;;6.50;1.20;;;;;;;24.95;35.94;99804.35;106054;1274;22995;-80
2022/05/19 09:14:27;;;;;;;6.00;1.10;;;;;;;25.08;36.31;99801.75;106301;1274;22563;-85
2022/05/19 09:17:05;;;;;;;4.80;1.30;;;;;;;25.26;36.23;99800.64;106155;1274;22598;-80
2022/05/19 09:19:38;;;;;;;4.10;1.00;;;;;;;25.42;36.12;99793.48;106065;1274;25248;-78
2022/05/19 09:22:19;;;;;;;3.70;1.20;;;;;;;25.51;35.78;99792.30;106172;1274;25350;-81
2022/05/19 09:24:55;;;;;;;5.60;1.50;;;;;;;25.56;35.68;99787.12;105964;1274;25249;-77
2022/05/19 09:27:22;;;;;;;6.50;1.20;;;;;;;25.66;35.54;99788.60;106037;1275;22537;-85
2022/05/19 09:29:55;;;;;;;6.30;1.20;;;;;;;25.77;35.50;99785.20;106281;1273;22551;-82
2022/05/19 09:32:34;;;;;;;7.20;1.20;;;;;;;25.81;35.15;99785.08;106086;1274;24402;-80
2022/05/19 09:35:34;;;;;;;3.80;1.00;;;;;;;25.78;35.19;99785.65;106311;1274;24324;-80
2022/05/19 09:38:21;;;;;;;5.30;1.10;;;;;;;25.78;34.90;99780.17;106057;1274;25243;-77
2022/05/19 09:40:54;;;;;;;3.40;1.10;;;;;;;25.78;35.07;99776.71;106024;1274;23336;-81
2022/05/19 09:43:36;;;;;;;4.80;1.00;;;;;;;25.89;34.93;99776.56;105925;1273;25285;-85
2022/05/19 09:46:17;;;;;;;9.20;1.30;;;;;;;25.97;34.63;99773.63;106059;1274;22582;-85
2022/05/19 09:48:56;;;;;;;7.90;1.10;;;;;;;25.93;34.91;99773.33;106125;1274;22552;-78
2022/05/19 09:51:29;;;;;;;4.40;1.30;;;;;;;26.04;34.56;99765.99;105989;1274;24316;-83
2022/05/19 09:53:59;;;;;;;4.60;1.20;;;;;;;26.12;34.88;99766.05;106052;1274;22534;-82
2022/05/19 09:56:39;;;;;;;5.90;1.10;;;;;;;26.26;34.78;99763.61;106016;1274;24704;-92
2022/05/19 09:59:10;;;;;;;5.60;1.30;;;;;;;26.22;34.68;99757.30;106120;1274;22654;-79
2022/05/19 10:01:39;;;;;;;6.00;1.40;;;;;;;26.16;34.61;99756.27;105958;1277;24794;-78
2022/05/19 10:04:13;;;;;;;6.10;1.30;;;;;;;26.26;34.46;99755.88;106124;1274;24071;-79
2022/05/19 10:07:08;;;;;;;10.40;1.50;;;;;;;26.33;34.33;99752.08;106108;1274;24289;-83
2022/05/19 10:09:43;;;;;;;6.30;1.30;;;;;;;26.29;34.03;99752.59;105994;1274;25404;-78
2022/05/19 10:12:14;;;;;;;6.50;1.30;;;;;;;26.27;34.39;99752.27;105963;1273;22558;-84
2022/05/19 10:14:49;;;;;;;8.00;1.40;;;;;;;26.44;34.49;99751.41;106016;1274;22704;-82
2022/05/19 10:17:18;;;;;;;3.90;1.20;;;;;;;26.64;34.44;99744.42;106070;1276;25294;-77
2022/05/19 10:20:24;;;;;;;6.90;1.30;;;;;;;26.79;34.27;99738.52;106091;1274;22587;-77
2022/05/19 10:23:42;;;;;;;7.70;1.10;;;;;;;27.02;34.48;99740.85;106331;1274;24225;-84
2022/05/19 10:26:38;;;;;;;5.30;1.10;;;;;;;27.23;33.86;99728.94;105964;1274;22670;-83
2022/05/19 10:32:20;;;;;;;9.50;1.40;;;;;;;27.15;33.36;99713.84;106141;1274;23326;-81
2022/05/19 10:34:58;;;;;;;4.30;1.20;;;;;;;27.19;33.45;99711.84;106272;1274;24289;-78
2022/05/19 10:37:46;;;;;;;7.40;1.40;;;;;;;27.28;33.58;99710.54;106034;1274;25505;-79
2022/05/19 10:40:57;;;;;;;5.00;1.10;;;;;;;27.44;33.65;99709.65;105994;1274;22536;-84
2022/05/19 10:43:32;;;;;;;5.40;1.50;;;;;;;27.61;33.36;99706.92;105615;1281;24247;-84
2022/05/19 10:46:01;;;;;;;5.90;1.30;;;;;;;27.72;33.08;99704.52;105699;1281;22572;-85
2022/05/19 10:48:52;;;;;;;6.00;1.30;;;;;;;27.70;32.60;99701.48;105469;1283;22571;-80
2022/05/19 10:51:43;;;;;;;6.80;1.50;;;;;;;27.57;32.57;99698.77;105646;1281;22548;-83
2022/05/19 10:54:31;;;;;;;21.30;1.80;;;;;;;27.50;32.37;99691.70;105701;1281;22628;-86
2022/05/19 10:57:27;;;;;;;4.50;1.20;;;;;;;27.49;32.62;99692.42;105651;1281;22607;-80
2022/05/19 11:00:44;;;;;;;5.70;1.20;;;;;;;27.48;32.36;99686.63;105011;1287;22725;-83
2022/05/19 11:03:26;;;;;;;8.10;1.50;;;;;;;27.47;32.12;99676.58;104398;1294;25316;-79
2022/05/19 11:06:07;;;;;;;11.10;1.40;;;;;;;27.45;32.36;99674.67;104426;1295;26500;-81
2022/05/19 11:08:40;;;;;;;6.20;1.10;;;;;;;27.45;31.96;99672.02;104332;1294;22525;-86
2022/05/19 11:11:18;;;;;;;5.70;1.10;;;;;;;27.51;32.05;99669.55;104333;1294;22576;-82
2022/05/19 11:14:00;;;;;;;7.40;1.20;;;;;;;27.59;31.79;99660.42;104267;1294;24376;-80
2022/05/19 11:16:49;;;;;;;5.70;1.00;;;;;;;27.59;31.23;99654.05;104292;1294;25371;-81
2022/05/19 11:19:26;;;;;;;4.30;1.30;;;;;;;27.47;31.36;99660.30;104964;1291;22585;-81
2022/05/19 11:22:03;;;;;;;5.50;1.30;;;;;;;27.51;31.87;99655.11;104580;1290;22560;-84
2022/05/19 11:28:05;;;;;;;6.70;1.30;;;;;;;27.67;31.79;99645.85;104809;1290;25566;-82
2022/05/19 11:30:51;;;;;;;8.20;1.20;;;;;;;27.80;31.60;99647.80;104456;1291;22560;-84
2022/05/19 11:33:27;;;;;;;9.90;1.80;;;;;;;27.90;31.25;99643.09;104766;1290;22576;-82
2022/05/19 11:36:01;;;;;;;6.10;1.20;;;;;;;27.91;31.27;99640.81;104750;1290;22616;-86
2022/05/19 11:38:41;;;;;;;6.70;1.30;;;;;;;27.98;31.11;99632.16;105645;1281;22559;-84
2022/05/19 11:41:14;;;;;;;5.90;1.30;;;;;;;28.03;31.12;99629.39;106203;1274;24454;-85
2022/05/19 11:44:10;;;;;;;5.40;1.40;;;;;;;28.03;31.06;99628.04;106246;1274;24257;-85
2022/05/19 11:46:59;;;;;;;6.50;1.30;;;;;;;28.05;30.99;99626.27;106081;1275;22872;-81
2022/05/19 11:55:55;;;;;;;5.70;1.40;;;;;;;28.16;30.95;99621.66;105987;1274;22700;-79
2022/05/19 11:58:31;;;;;;;5.50;1.40;;;;;;;28.23;30.62;99619.21;105998;1274;23170;-78
2022/05/19 12:01:40;;;;;;;;;;;;;;;;;;;;;
2022/05/19 12:04:27;;;;;;;6.00;1.30;;;;;;;28.14;30.32;99606.38;106276;1274;22532;-81
2022/05/19 12:07:22;;;;;;;10.10;1.40;;;;;;;28.12;30.13;99601.85;106094;1274;269762;-85
2022/05/19 12:09:56;;;;;;;5.00;1.30;;;;;;;28.18;30.43;99597.88;106107;1275;22553;-86
2022/05/19 12:13:00;;;;;;;4.90;1.10;;;;;;;28.17;29.65;99594.00;105972;1274;24385;-83
2022/05/19 12:15:40;;;;;;;5.20;1.40;;;;;;;28.14;30.01;99590.80;106285;1274;22717;-77
2022/05/19 12:18:23;;;;;;;7.50;1.20;;;;;;;28.12;29.83;99589.19;105942;1275;22751;-80
2022/05/19 12:20:53;;;;;;;5.70;1.10;;;;;;;28.06;30.18;99589.48;106073;1274;25322;-82
2022/05/19 12:23:26;;;;;;;5.30;1.30;;;;;;;28.03;30.10;99586.65;106080;1274;25352;-79
2022/05/19 12:26:03;;;;;;;6.80;1.20;;;;;;;27.86;29.88;99586.38;106370;1274;22566;-78
2022/05/19 12:29:08;;;;;;;9.70;1.40;;;;;;;27.71;29.83;99582.63;105970;1275;22699;-83
2022/05/19 12:31:59;;;;;;;5.50;1.40;;;;;;;27.62;29.97;99581.23;105259;1283;22923;-81
2022/05/19 12:34:36;;;;;;;4.40;1.30;;;;;;;27.54;29.77;99579.75;105384;1284;22553;-81
2022/05/19 12:37:38;;;;;;;6.70;1.50;;;;;;;27.44;29.94;99576.55;105513;1284;22538;-80
2022/05/19 12:40:28;;;;;;;7.30;1.70;;;;;;;27.47;29.73;99573.35;105586;1284;23355;-77
2022/05/19 12:43:30;;;;;;;6.70;1.40;;;;;;;27.53;29.90;99576.11;105477;1284;22719;-80
2022/05/19 12:46:02;;;;;;;8.20;1.40;;;;;;;27.56;29.34;99570.52;105520;1284;22722;-81
2022/05/19 12:48:34;;;;;;;4.10;1.30;;;;;;;27.56;29.92;99569.63;105665;1284;22513;-76
2022/05/19 12:51:08;;;;;;;12.80;2.20;;;;;;;27.63;29.96;99565.89;105060;1285;25628;-83
2022/05/19 12:54:03;;;;;;;9.00;1.50;;;;;;;27.70;29.85;99565.51;105632;1284;22582;-85
2022/05/19 12:56:45;;;;;;;4.80;1.10;;;;;;;27.78;29.62;99564.54;105533;1284;22567;-79
2022/05/19 12:59:31;;;;;;;4.30;1.20;;;;;;;27.74;29.42;99563.31;105532;1284;22780;-81
2022/05/19 13:02:02;;;;;;;4.50;1.50;;;;;;;27.66;29.22;99563.57;105541;1284;23911;-79
2022/05/19 13:04:29;;;;;;;4.80;1.40;;;;;;;27.56;29.28;99559.88;105365;1284;25574;-81
2022/05/19 13:07:04;;;;;;;6.90;1.50;;;;;;;27.52;29.38;99554.98;105729;1284;24453;-78
2022/05/19 13:09:34;;;;;;;8.50;1.40;;;;;;;27.57;29.61;99550.34;105633;1274;22539;-84
2022/05/19 13:12:16;;;;;;;5.80;1.00;;;;;;;27.63;29.50;99545.95;105941;1278;23672;-81